Accueil
METAR-TAF:

METAR-TAF

Aéroports :

Coxyde, Belgique

Base aérienne de Coxyde

latitude: 51-05N, longitude: 002-39E, altitude: 4 m

Observation

Le bulletin a été fait il y a 39 minutes, à 21:55 UTC
Vent 5 kt de est
Température 17°C
Humidité 72%
Pression 1015 hPa
Visibilité 10 km ou plus

METAR: EBFN 262155Z AUTO 10005KT 9999 NCD 17/12 Q1015 BLU

Heure: 00:34 (22:34 UTC)

Prévision

Le bulletin a été fait il y a 6 heures et 53 minutes, à 15:41 UTC
Prévision valable du 26 à 19 UTC au 27 à 07 UTC
Vent 12 kt de est/sud-est
Ciel clair
Temporairement
du 27 à 03 UTC au 27 à 07 UTC
Visibilité: 6000 m
Probabilité %
entre 40 et UTC
Temporairement
du 27 à 03 UTC au 27 à 07 UTC
Visibilité: 4000 m
brume

TAF: EBFN 261541Z 2619/2707 12012KT SKC TEMPO 2703/2707 6000 PROB 40 TEMPO 2703/2707 4000 BR

Observations et prévisions météorologiques de plus de 4000 aéroports (messages METAR et TAF).

Les stations disponibles sont représentées par des disques jaunes et rouges sur la carte.

Passer la souris dessus pour voir le nom de la station.

Cliquer dessus pour voir les observations et prévisions météorologiques.

Pour changer de carte: cliquez sur les boutons verts avec une croix noire pour zoomer, sur le bouton vert avec un tiret pour effectuer un zoom arrière, ou sur les flèches vertes pour les cartes adjacentes.


METAR-TAF: